Time;durP1;ratioP1;P1;durP2;ratioP2;P2;SDS_P1;SDS_P2;PMS_P1;PMS_P2;Temp;Humidity;BMP_temperature;BMP_pressure;BME280_temperature;BME280_humidity;BME280_pressure;Samples;Min_cycle;Max_cycle;Signal;HPM_P1;HPM_P2
2023/01/25 00:01:26;;;;;;;51.57;30.67;;;1.40;99.90;;;;;;4819708;29;20037;-81
2023/01/25 00:03:52;;;;;;;54.37;32.13;;;1.40;99.90;;;;;;4842336;29;20046;-81
2023/01/25 00:06:18;;;;;;;53.30;32.40;;;1.30;99.90;;;;;;4838272;29;20050;-81
2023/01/25 00:08:47;;;;;;;48.10;28.80;;;1.30;99.90;;;;;;4826331;29;20084;-81
2023/01/25 00:11:15;;;;;;;49.33;28.73;;;1.30;99.90;;;;;;4843332;29;20138;-81
2023/01/25 00:13:41;;;;;;;46.93;29.00;;;1.20;99.90;;;;;;4879811;29;20049;-81
2023/01/25 00:16:08;;;;;;;45.20;28.40;;;1.20;99.90;;;;;;4849214;29;20048;-81
2023/01/25 00:18:33;;;;;;;50.03;30.77;;;1.20;99.90;;;;;;4875808;29;20056;-81
2023/01/25 00:20:59;;;;;;;48.70;29.80;;;1.20;99.90;;;;;;4816160;29;20041;-81
2023/01/25 00:23:25;;;;;;;54.00;30.03;;;1.20;99.90;;;;;;4842547;29;20051;-81
2023/01/25 00:25:57;;;;;;;45.53;28.73;;;1.20;99.90;;;;;;4814448;29;20082;-81
2023/01/25 00:28:26;;;;;;;47.57;29.60;;;1.20;99.90;;;;;;4843931;29;20172;-82
2023/01/25 00:30:51;;;;;;;50.40;29.73;;;1.20;99.90;;;;;;4823844;29;20447;-81
2023/01/25 00:33:17;;;;;;;49.37;30.07;;;1.10;99.90;;;;;;4823391;29;20089;-82
2023/01/25 00:35:44;;;;;;;48.27;30.07;;;1.10;99.90;;;;;;4829715;29;20513;-81
2023/01/25 00:38:32;;;;;;;48.60;29.97;;;1.10;99.90;;;;;;4836794;29;20045;-81
2023/01/25 00:40:58;;;;;;;50.10;30.00;;;1.10;99.90;;;;;;4842050;29;20086;-81
2023/01/25 00:43:24;;;;;;;48.77;29.87;;;1.10;99.90;;;;;;4832637;29;20088;-81
2023/01/25 00:45:50;;;;;;;48.70;29.10;;;1.10;99.90;;;;;;4823898;29;20455;-82
2023/01/25 00:48:15;;;;;;;49.37;30.00;;;1.10;99.90;;;;;;4812036;29;20042;-82
2023/01/25 00:50:41;;;;;;;53.37;30.47;;;1.10;99.90;;;;;;4836774;29;20481;-90
2023/01/25 00:53:07;;;;;;;51.53;30.30;;;1.10;99.90;;;;;;4831745;29;20418;-89
2023/01/25 00:55:33;;;;;;;50.23;29.97;;;1.10;99.90;;;;;;4833644;29;20060;-89
2023/01/25 00:57:58;;;;;;;49.87;29.93;;;1.10;99.90;;;;;;4846860;29;20042;-89
2023/01/25 01:00:24;;;;;;;54.90;31.57;;;1.10;99.90;;;;;;4842037;29;20044;-90
2023/01/25 01:02:50;;;;;;;50.43;30.53;;;1.10;99.90;;;;;;4825554;29;20041;-90
2023/01/25 01:05:15;;;;;;;48.47;29.43;;;1.20;99.90;;;;;;4816427;29;20046;-90
2023/01/25 01:07:42;;;;;;;55.67;30.40;;;1.10;99.90;;;;;;4813144;29;20049;-89
2023/01/25 01:10:08;;;;;;;52.47;29.83;;;1.10;99.90;;;;;;4843354;29;20137;-90
2023/01/25 01:12:34;;;;;;;51.07;31.33;;;1.20;99.90;;;;;;4825346;29;20045;-90
2023/01/25 01:15:00;;;;;;;52.47;30.23;;;1.10;99.90;;;;;;4864483;29;20041;-90
2023/01/25 01:17:26;;;;;;;50.97;30.90;;;1.10;99.90;;;;;;4815997;29;20041;-90
2023/01/25 01:19:51;;;;;;;52.50;31.23;;;1.10;99.90;;;;;;4830818;29;20041;-90
2023/01/25 01:22:17;;;;;;;53.03;31.40;;;1.10;99.90;;;;;;4831189;29;20046;-90
2023/01/25 01:24:43;;;;;;;53.37;31.53;;;1.10;99.90;;;;;;4833632;29;20049;-90
2023/01/25 01:27:09;;;;;;;53.40;30.77;;;1.10;99.90;;;;;;4864983;29;20041;-90
2023/01/25 01:29:34;;;;;;;50.67;30.80;;;1.10;99.90;;;;;;4830137;29;20045;-81
2023/01/25 01:32:00;;;;;;;54.47;32.23;;;1.10;99.90;;;;;;4826392;29;20041;-82
2023/01/25 01:34:26;;;;;;;53.30;32.50;;;1.10;99.90;;;;;;4862068;29;20064;-81
2023/01/25 01:36:51;;;;;;;54.87;32.77;;;1.10;99.90;;;;;;4835217;29;20053;-81
2023/01/25 01:39:17;;;;;;;54.83;31.60;;;1.10;99.90;;;;;;4821372;29;20085;-81
2023/01/25 01:41:43;;;;;;;51.27;30.60;;;1.10;99.90;;;;;;4841642;29;20149;-82
2023/01/25 01:44:17;;;;;;;54.07;31.13;;;1.00;99.90;;;;;;4860346;29;20053;-82
2023/01/25 01:46:50;;;;;;;54.37;31.23;;;1.00;99.90;;;;;;4828755;29;20052;-81
2023/01/25 01:49:21;;;;;;;56.27;32.47;;;0.90;99.90;;;;;;4839332;29;20097;-81
2023/01/25 01:51:51;;;;;;;53.77;31.77;;;0.90;99.90;;;;;;4879516;29;20048;-81
2023/01/25 01:54:36;;;;;;;53.30;31.90;;;1.00;99.90;;;;;;4847634;29;20048;-81
2023/01/25 01:57:22;;;;;;;58.77;32.87;;;1.00;99.90;;;;;;4831854;29;20534;-81
2023/01/25 01:59:47;;;;;;;56.27;32.27;;;0.90;99.90;;;;;;4841845;29;20236;-81
2023/01/25 02:02:13;;;;;;;55.43;32.53;;;0.90;99.90;;;;;;4819491;29;20613;-81
2023/01/25 02:04:40;;;;;;;58.07;32.50;;;0.90;99.90;;;;;;4840353;29;20095;-81
2023/01/25 02:07:29;;;;;;;55.13;31.57;;;0.90;99.90;;;;;;4854212;29;20048;-81
2023/01/25 02:09:55;;;;;;;64.13;35.40;;;1.00;99.90;;;;;;4857095;29;20096;-81
2023/01/25 02:12:22;;;;;;;55.53;33.23;;;0.90;99.90;;;;;;4831939;29;20044;-81
2023/01/25 02:14:52;;;;;;;60.27;33.53;;;0.90;99.90;;;;;;4852508;29;20060;-81
2023/01/25 02:17:30;;;;;;;55.60;33.30;;;0.90;99.90;;;;;;4861327;29;20088;-81
2023/01/25 02:20:02;;;;;;;60.03;35.43;;;0.90;99.90;;;;;;4852676;29;20066;-81
2023/01/25 02:23:02;;;;;;;62.72;35.33;;;0.90;99.90;;;;;;4838475;29;20450;-81
2023/01/25 02:25:28;;;;;;;59.30;33.87;;;0.90;99.90;;;;;;4842405;29;20053;-81
2023/01/25 02:28:02;;;;;;;63.13;35.20;;;0.90;99.90;;;;;;4821861;29;20413;-81
2023/01/25 02:30:28;;;;;;;60.03;35.60;;;0.80;99.90;;;;;;4856905;29;20049;-81
2023/01/25 02:32:53;;;;;;;60.33;34.73;;;0.80;99.90;;;;;;4831528;29;20132;-81
2023/01/25 02:35:35;;;;;;;61.97;35.30;;;0.80;99.90;;;;;;4843514;29;20113;-81
2023/01/25 02:38:01;;;;;;;59.85;34.72;;;0.80;99.90;;;;;;4835631;29;20041;-82
2023/01/25 02:40:30;;;;;;;63.70;35.90;;;0.70;99.90;;;;;;4841947;29;20112;-81
2023/01/25 02:42:56;;;;;;;63.50;35.70;;;0.70;99.90;;;;;;4828832;29;20053;-81
2023/01/25 02:45:26;;;;;;;64.20;36.53;;;0.70;99.90;;;;;;4828316;29;20038;-81
2023/01/25 02:47:52;;;;;;;63.30;36.83;;;0.70;99.90;;;;;;4850549;29;20045;-81
2023/01/25 02:50:17;;;;;;;62.17;35.93;;;0.70;99.90;;;;;;4844518;29;20052;-81
2023/01/25 02:52:43;;;;;;;64.70;36.27;;;0.70;99.90;;;;;;4818057;29;20052;-81
2023/01/25 02:55:09;;;;;;;63.03;36.10;;;0.70;99.90;;;;;;4855026;29;20481;-81
2023/01/25 02:57:35;;;;;;;65.87;37.57;;;0.70;99.90;;;;;;4817003;29;20073;-81
2023/01/25 03:00:01;;;;;;;65.00;36.97;;;0.70;99.90;;;;;;4835784;29;20430;-81
2023/01/25 03:02:27;;;;;;;66.10;37.60;;;0.70;99.90;;;;;;4842863;29;20056;-81
2023/01/25 03:04:52;;;;;;;68.77;37.60;;;0.70;99.90;;;;;;4807342;29;20077;-81
2023/01/25 03:07:18;;;;;;;66.77;37.20;;;0.70;99.90;;;;;;4819378;29;20056;-81
2023/01/25 03:09:44;;;;;;;64.23;36.30;;;0.60;99.90;;;;;;4807850;29;20045;-81
2023/01/25 03:12:09;;;;;;;67.30;36.80;;;0.60;99.90;;;;;;4824975;29;20416;-81
2023/01/25 03:14:35;;;;;;;62.43;36.57;;;0.70;99.90;;;;;;4847155;29;20040;-81
2023/01/25 03:17:01;;;;;;;65.40;37.97;;;0.70;99.90;;;;;;4820446;29;20041;-82
2023/01/25 03:19:27;;;;;;;70.90;37.80;;;0.70;99.90;;;;;;4818405;29;20482;-82
2023/01/25 03:21:53;;;;;;;63.57;36.67;;;0.70;99.90;;;;;;4822286;29;20045;-81
2023/01/25 03:24:18;;;;;;;64.33;37.00;;;0.70;99.90;;;;;;4823735;29;20040;-81
2023/01/25 03:29:28;;;;;;;67.10;36.87;;;0.60;99.90;;;;;;4833547;29;20106;-81
2023/01/25 03:31:54;;;;;;;62.73;36.73;;;0.60;99.90;;;;;;4814610;29;20042;-81
2023/01/25 03:34:20;;;;;;;67.00;37.77;;;0.60;99.90;;;;;;4811719;29;20137;-81
2023/01/25 03:36:45;;;;;;;63.90;36.30;;;0.60;99.90;;;;;;4812357;29;20054;-82
2023/01/25 03:39:11;;;;;;;65.70;37.43;;;0.60;99.90;;;;;;4828262;29;20063;-81
2023/01/25 03:41:37;;;;;;;61.10;34.87;;;0.50;99.90;;;;;;4828452;29;20041;-81
2023/01/25 03:44:03;;;;;;;70.10;39.37;;;0.50;99.90;;;;;;4878222;29;20049;-81
2023/01/25 03:46:29;;;;;;;68.10;39.30;;;0.50;99.90;;;;;;4846032;29;20076;-81
2023/01/25 03:48:54;;;;;;;67.07;39.43;;;0.50;99.90;;;;;;4830761;29;20059;-82
2023/01/25 03:51:20;;;;;;;66.40;37.57;;;0.50;99.90;;;;;;4875714;29;20048;-82
2023/01/25 03:53:46;;;;;;;67.13;37.73;;;0.50;99.90;;;;;;4842930;29;20087;-81
2023/01/25 03:56:18;;;;;;;68.23;38.57;;;0.50;99.90;;;;;;4852524;29;20050;-81
2023/01/25 03:58:45;;;;;;;67.60;38.27;;;0.50;99.90;;;;;;4877733;29;20872;-81
2023/01/25 04:01:11;;;;;;;70.00;39.67;;;0.50;99.90;;;;;;4847016;29;20418;-81
2023/01/25 04:03:36;;;;;;;69.87;39.20;;;0.50;99.90;;;;;;4835840;29;20049;-81
2023/01/25 04:06:03;;;;;;;70.90;39.33;;;0.50;99.90;;;;;;4846481;29;20049;-81
2023/01/25 04:08:29;;;;;;;72.53;40.03;;;0.60;99.90;;;;;;4833838;29;20406;-82
2023/01/25 04:11:06;;;;;;;74.77;41.77;;;0.60;99.90;;;;;;4840631;29;20489;-82
2023/01/25 04:13:36;;;;;;;73.27;41.23;;;0.60;99.90;;;;;;4830584;29;20459;-81
2023/01/25 04:16:06;;;;;;;76.97;42.00;;;0.50;99.90;;;;;;4846420;29;20073;-82
2023/01/25 04:18:32;;;;;;;74.00;39.73;;;0.50;99.90;;;;;;4848527;29;20041;-82
2023/01/25 04:20:58;;;;;;;73.57;41.67;;;0.50;99.90;;;;;;4815215;29;20064;-82
2023/01/25 04:23:25;;;;;;;72.20;40.17;;;0.50;99.90;;;;;;4822657;29;20068;-82
2023/01/25 04:25:59;;;;;;;75.30;41.40;;;0.50;99.90;;;;;;4830443;29;20129;-81
2023/01/25 04:28:26;;;;;;;73.20;39.97;;;0.50;99.90;;;;;;4830330;29;20045;-82
2023/01/25 04:30:54;;;;;;;74.57;40.87;;;0.50;99.90;;;;;;4843435;29;20049;-82
2023/01/25 04:33:19;;;;;;;76.83;42.10;;;0.50;99.90;;;;;;4845279;29;20071;-81
2023/01/25 04:35:45;;;;;;;71.93;40.40;;;0.50;99.90;;;;;;4840495;29;20514;-82
2023/01/25 04:38:12;;;;;;;68.27;37.33;;;0.50;99.90;;;;;;4836032;29;20448;-82
2023/01/25 04:40:38;;;;;;;69.80;39.03;;;0.50;99.90;;;;;;4832583;29;20052;-81
2023/01/25 04:43:05;;;;;;;71.80;39.43;;;0.50;99.90;;;;;;4863643;29;20053;-81
2023/01/25 04:45:31;;;;;;;67.47;37.67;;;0.40;99.90;;;;;;4844247;29;20118;-81
2023/01/25 04:48:01;;;;;;;66.43;36.70;;;0.40;99.90;;;;;;4847209;29;20468;-81
2023/01/25 04:50:27;;;;;;;70.80;38.87;;;0.40;99.90;;;;;;4826978;29;20054;-81
2023/01/25 04:52:53;;;;;;;68.17;38.00;;;0.40;99.90;;;;;;4847740;29;20046;-82
2023/01/25 04:55:19;;;;;;;66.67;37.83;;;0.40;99.90;;;;;;4858020;29;20124;-81
2023/01/25 04:57:47;;;;;;;69.67;38.67;;;0.40;99.90;;;;;;4816387;29;20477;-82
2023/01/25 05:00:13;;;;;;;70.07;38.23;;;0.40;99.90;;;;;;4856612;29;20049;-82
2023/01/25 05:02:39;;;;;;;68.37;37.17;;;0.40;99.90;;;;;;4811577;29;20045;-81
2023/01/25 05:05:05;;;;;;;65.90;37.43;;;0.40;99.90;;;;;;4860481;29;20089;-82
2023/01/25 05:07:31;;;;;;;66.77;37.40;;;0.40;99.90;;;;;;4859809;29;20037;-83
2023/01/25 05:09:56;;;;;;;69.87;38.67;;;0.40;99.90;;;;;;4846840;29;20065;-81
2023/01/25 05:12:22;;;;;;;73.60;39.27;;;0.40;99.90;;;;;;4838742;29;20044;-82
2023/01/25 05:14:48;;;;;;;65.93;35.63;;;0.40;99.90;;;;;;4844717;29;20525;-82
2023/01/25 05:17:13;;;;;;;70.03;38.43;;;0.40;99.90;;;;;;4822058;29;20418;-82
2023/01/25 05:19:39;;;;;;;66.60;37.10;;;0.40;99.90;;;;;;4825452;29;20054;-82
2023/01/25 05:22:10;;;;;;;70.47;37.50;;;0.40;99.90;;;;;;4832724;29;20045;-82
2023/01/25 05:24:40;;;;;;;67.30;37.57;;;0.40;99.90;;;;;;4848349;29;20081;-81
2023/01/25 05:27:06;;;;;;;68.33;38.13;;;0.40;99.90;;;;;;4879738;29;20056;-81
2023/01/25 05:29:37;;;;;;;68.83;37.80;;;0.40;99.90;;;;;;4846710;29;20087;-81
2023/01/25 05:32:07;;;;;;;66.20;36.80;;;0.50;99.90;;;;;;4849437;29;20136;-81
2023/01/25 05:34:33;;;;;;;68.80;37.80;;;0.50;99.90;;;;;;4843999;29;20065;-81
2023/01/25 05:37:00;;;;;;;68.33;39.33;;;0.50;99.90;;;;;;4875221;29;20113;-81
2023/01/25 05:39:27;;;;;;;69.70;38.30;;;0.50;99.90;;;;;;4862385;29;20073;-81
2023/01/25 05:41:52;;;;;;;69.53;38.10;;;0.50;99.90;;;;;;4832360;29;20045;-80
2023/01/25 05:44:18;;;;;;;64.27;36.13;;;0.40;99.90;;;;;;4828841;29;20051;-81
2023/01/25 05:46:44;;;;;;;67.33;37.10;;;0.40;99.90;;;;;;4844121;29;20806;-81
2023/01/25 05:49:10;;;;;;;65.27;36.67;;;0.50;99.90;;;;;;4818617;29;20083;-82
2023/01/25 05:51:37;;;;;;;65.13;36.17;;;0.50;99.90;;;;;;4842334;29;20094;-81
2023/01/25 05:54:04;;;;;;;68.70;37.40;;;0.50;99.90;;;;;;4828644;29;20490;-81
2023/01/25 05:56:30;;;;;;;63.70;35.90;;;0.50;99.90;;;;;;4853343;29;20106;-82
2023/01/25 05:58:58;;;;;;;64.40;36.23;;;0.50;99.90;;;;;;4821066;29;20098;-82
2023/01/25 06:01:25;;;;;;;62.50;36.20;;;0.50;99.90;;;;;;4849911;29;20048;-81
2023/01/25 06:03:51;;;;;;;64.53;36.77;;;0.50;99.90;;;;;;4816761;29;20046;-82
2023/01/25 06:06:17;;;;;;;68.00;37.37;;;0.50;99.90;;;;;;4845952;29;20047;-81
2023/01/25 06:08:43;;;;;;;60.93;34.10;;;0.50;99.90;;;;;;4829138;29;20716;-82
2023/01/25 06:11:12;;;;;;;57.67;32.67;;;0.60;99.90;;;;;;4848754;29;20056;-81
2023/01/25 06:13:38;;;;;;;57.83;33.63;;;0.50;99.90;;;;;;4845034;29;20703;-81
2023/01/25 06:16:04;;;;;;;55.03;32.00;;;0.50;99.90;;;;;;4832513;29;20060;-81
2023/01/25 06:18:31;;;;;;;56.23;31.90;;;0.50;99.90;;;;;;4847079;29;20053;-82
2023/01/25 06:20:58;;;;;;;55.47;32.47;;;0.50;99.90;;;;;;4814051;29;20072;-81
2023/01/25 06:23:25;;;;;;;59.20;32.73;;;0.50;99.90;;;;;;4857135;29;20044;-82
2023/01/25 06:25:52;;;;;;;57.97;32.37;;;0.50;99.90;;;;;;4846926;29;20394;-82
2023/01/25 06:28:18;;;;;;;55.70;31.87;;;0.50;99.90;;;;;;4850936;29;20132;-82
2023/01/25 06:30:44;;;;;;;56.67;32.00;;;0.50;99.90;;;;;;4827758;29;20177;-81
2023/01/25 06:33:09;;;;;;;54.47;31.50;;;0.50;99.90;;;;;;4813173;29;20402;-81
2023/01/25 06:35:35;;;;;;;55.47;32.37;;;0.40;99.90;;;;;;4824411;29;20094;-81
2023/01/25 06:38:01;;;;;;;58.93;33.83;;;0.40;99.90;;;;;;4821444;29;20042;-81
2023/01/25 06:40:27;;;;;;;56.73;32.40;;;0.40;99.90;;;;;;4847796;29;20057;-81
2023/01/25 06:42:53;;;;;;;56.97;33.67;;;0.40;99.90;;;;;;4810030;29;20057;-81
2023/01/25 06:45:19;;;;;;;55.43;32.40;;;0.40;99.90;;;;;;4819851;29;20485;-81
2023/01/25 06:47:47;;;;;;;57.13;33.57;;;0.40;99.90;;;;;;4831197;29;20056;-81
2023/01/25 06:50:14;;;;;;;57.30;32.33;;;0.40;99.90;;;;;;4846698;29;20049;-81
2023/01/25 06:52:39;;;;;;;57.17;32.63;;;0.40;99.90;;;;;;4831579;29;20536;-80
2023/01/25 06:55:12;;;;;;;58.73;32.77;;;0.40;99.90;;;;;;4846353;29;20076;-80
2023/01/25 06:57:38;;;;;;;58.87;32.87;;;0.40;99.90;;;;;;4845296;29;20049;-81
2023/01/25 07:00:05;;;;;;;57.83;32.97;;;0.40;99.90;;;;;;4836116;29;20049;-81
2023/01/25 07:02:31;;;;;;;61.30;34.10;;;0.40;99.90;;;;;;4812819;29;20053;-81
2023/01/25 07:04:56;;;;;;;62.03;33.77;;;0.40;99.90;;;;;;4812887;29;20061;-81
2023/01/25 07:07:22;;;;;;;61.03;34.03;;;0.30;99.90;;;;;;4828129;29;20089;-80
2023/01/25 07:09:48;;;;;;;59.20;33.83;;;0.30;99.90;;;;;;4851079;29;20045;-81
2023/01/25 07:12:13;;;;;;;57.97;33.37;;;0.30;99.90;;;;;;4861695;29;20481;-81
2023/01/25 07:14:39;;;;;;;66.17;35.07;;;0.30;99.90;;;;;;4830869;29;20096;-82
2023/01/25 07:17:05;;;;;;;60.10;34.93;;;0.30;99.90;;;;;;4842321;29;20116;-81
2023/01/25 07:19:30;;;;;;;63.23;33.83;;;0.30;99.90;;;;;;4823456;29;20036;-81
2023/01/25 07:21:56;;;;;;;64.73;35.17;;;0.30;99.90;;;;;;4818571;29;20084;-81
2023/01/25 07:24:25;;;;;;;64.53;35.97;;;0.20;99.90;;;;;;4810319;29;20042;-81
2023/01/25 07:26:51;;;;;;;65.50;35.20;;;0.30;99.90;;;;;;4846867;29;20049;-81
2023/01/25 07:29:17;;;;;;;62.73;35.07;;;0.20;99.90;;;;;;4846273;29;20508;-81
2023/01/25 07:31:43;;;;;;;68.63;37.00;;;0.20;99.90;;;;;;4878267;29;20490;-82
2023/01/25 07:34:12;;;;;;;66.40;37.37;;;0.30;99.90;;;;;;4838904;29;20050;-81
2023/01/25 07:36:38;;;;;;;68.33;36.50;;;0.30;99.90;;;;;;4843052;29;20374;-81
2023/01/25 07:39:04;;;;;;;66.53;35.93;;;0.30;99.90;;;;;;4859346;29;20126;-81
2023/01/25 07:41:31;;;;;;;65.83;36.27;;;0.30;99.90;;;;;;4813583;29;20182;-80
2023/01/25 07:43:57;;;;;;;69.00;37.37;;;0.30;99.90;;;;;;4846189;29;20054;-81
2023/01/25 07:46:23;;;;;;;66.27;36.30;;;0.30;99.90;;;;;;4831306;29;20052;-87
2023/01/25 07:48:51;;;;;;;65.83;35.63;;;0.30;99.90;;;;;;4831169;29;20097;-87
2023/01/25 07:51:21;;;;;;;67.47;36.70;;;0.30;99.90;;;;;;4831288;29;20135;-88
2023/01/25 07:53:50;;;;;;;66.17;34.70;;;0.40;99.90;;;;;;4845221;29;20038;-87
2023/01/25 07:56:17;;;;;;;67.33;36.83;;;0.40;99.90;;;;;;4798297;29;20105;-88
2023/01/25 07:58:43;;;;;;;67.83;35.57;;;0.40;99.90;;;;;;4828299;29;20053;-88
2023/01/25 08:01:17;;;;;;;65.20;35.03;;;0.40;99.90;;;;;;4827963;29;20448;-88
2023/01/25 08:03:44;;;;;;;64.73;34.13;;;0.30;99.90;;;;;;4821014;29;20113;-88
2023/01/25 08:06:10;;;;;;;63.83;34.47;;;0.20;99.90;;;;;;4830682;29;20050;-89
2023/01/25 08:08:39;;;;;;;62.53;34.90;;;0.20;99.90;;;;;;4812722;29;20052;-88
2023/01/25 08:11:16;;;;;;;65.23;35.13;;;0.20;99.90;;;;;;4837088;29;20049;-87
2023/01/25 08:13:45;;;;;;;59.87;33.10;;;0.20;99.90;;;;;;4830303;29;20618;-88
2023/01/25 08:16:12;;;;;;;61.40;33.23;;;0.20;99.90;;;;;;4830741;29;20177;-88
2023/01/25 08:18:38;;;;;;;62.67;33.37;;;0.20;99.90;;;;;;4846502;29;20401;-88
2023/01/25 08:21:04;;;;;;;59.60;33.27;;;0.20;99.90;;;;;;4846260;29;20053;-88
2023/01/25 08:23:30;;;;;;;65.03;34.87;;;0.20;99.90;;;;;;4815927;29;20046;-88
2023/01/25 08:26:04;;;;;;;67.10;34.83;;;0.20;99.90;;;;;;4813821;29;20124;-87
2023/01/25 08:28:30;;;;;;;60.83;33.87;;;0.20;99.90;;;;;;4804677;29;20561;-87
2023/01/25 08:31:09;;;;;;;62.57;34.93;;;0.30;99.90;;;;;;4830629;29;20042;-87
2023/01/25 08:33:34;;;;;;;64.97;35.37;;;0.30;99.90;;;;;;4812882;29;20517;-87
2023/01/25 08:36:00;;;;;;;64.37;34.77;;;0.30;99.90;;;;;;4828768;29;20100;-87
2023/01/25 08:38:26;;;;;;;61.10;33.20;;;0.30;99.90;;;;;;4833579;29;20049;-87
2023/01/25 08:40:52;;;;;;;62.73;34.03;;;0.40;99.90;;;;;;4848777;29;20493;-87
2023/01/25 08:43:18;;;;;;;64.57;35.07;;;0.40;99.90;;;;;;4833641;29;20053;-87
2023/01/25 08:45:44;;;;;;;64.17;34.67;;;0.30;99.90;;;;;;4834138;29;20049;-87
2023/01/25 08:48:14;;;;;;;61.53;33.40;;;0.30;99.90;;;;;;4858365;29;20049;-88
2023/01/25 08:50:46;;;;;;;66.37;36.60;;;0.30;99.90;;;;;;4860026;29;20053;-87
2023/01/25 08:53:12;;;;;;;69.18;36.03;;;0.30;99.90;;;;;;4829572;29;20064;-88
2023/01/25 08:55:39;;;;;;;67.47;36.90;;;0.40;99.90;;;;;;4845556;29;20087;-88
2023/01/25 08:58:09;;;;;;;70.43;37.83;;;0.40;99.90;;;;;;4830563;29;20394;-88
2023/01/25 09:00:39;;;;;;;66.53;34.70;;;0.30;99.90;;;;;;4815981;29;20071;-87
2023/01/25 09:03:06;;;;;;;65.87;35.33;;;0.40;99.90;;;;;;4818990;29;20048;-87
2023/01/25 09:05:36;;;;;;;66.83;36.53;;;0.40;99.90;;;;;;4828536;29;20041;-87
2023/01/25 09:08:04;;;;;;;64.97;34.67;;;0.40;99.90;;;;;;4828959;29;20045;-88
2023/01/25 09:10:30;;;;;;;67.27;36.27;;;0.40;99.90;;;;;;4846988;29;20048;-87
2023/01/25 09:12:56;;;;;;;64.20;36.03;;;0.40;99.90;;;;;;4829584;29;20520;-88
2023/01/25 09:15:22;;;;;;;61.77;33.80;;;0.50;99.90;;;;;;4828813;29;20045;-88
2023/01/25 09:17:55;;;;;;;69.70;36.47;;;0.50;99.90;;;;;;4830254;29;21453;-87
2023/01/25 09:20:22;;;;;;;63.73;33.90;;;0.50;99.90;;;;;;4843751;29;20041;-87
2023/01/25 09:22:48;;;;;;;60.83;33.73;;;0.40;99.90;;;;;;4826880;29;20060;-87
2023/01/25 09:25:14;;;;;;;63.00;33.90;;;0.40;99.90;;;;;;4829978;29;20136;-88
2023/01/25 09:27:40;;;;;;;60.60;32.80;;;0.40;99.90;;;;;;4831597;29;20041;-87
2023/01/25 09:30:08;;;;;;;59.67;32.20;;;0.40;99.90;;;;;;4827541;29;20420;-88
2023/01/25 09:32:34;;;;;;;55.47;31.57;;;0.30;99.90;;;;;;4823938;29;20072;-88
2023/01/25 09:35:00;;;;;;;59.13;33.00;;;0.30;99.90;;;;;;4829390;29;20514;-87
2023/01/25 09:37:25;;;;;;;59.97;32.70;;;0.20;99.90;;;;;;4826338;29;20049;-88
2023/01/25 09:39:51;;;;;;;61.13;32.17;;;0.20;99.90;;;;;;4819139;29;20128;-87
2023/01/25 09:42:18;;;;;;;61.43;32.13;;;0.30;99.90;;;;;;4814169;29;20049;-87
2023/01/25 09:45:25;;;;;;;59.90;32.87;;;0.30;99.90;;;;;;4843081;29;20061;-87
2023/01/25 09:48:24;;;;;;;59.73;33.77;;;0.30;99.90;;;;;;4842871;29;20726;-87
2023/01/25 09:51:13;;;;;;;59.90;32.63;;;0.20;99.90;;;;;;4827702;29;20082;-87
2023/01/25 09:53:49;;;;;;;60.97;33.13;;;0.30;99.90;;;;;;4829999;29;20617;-88
2023/01/25 09:56:31;;;;;;;65.20;34.67;;;0.30;99.90;;;;;;4826980;29;20041;-88
2023/01/25 09:59:02;;;;;;;64.73;34.30;;;0.30;99.90;;;;;;4829709;29;20037;-88
2023/01/25 10:01:50;;;;;;;62.83;33.60;;;0.30;99.90;;;;;;4850655;29;20073;-88
2023/01/25 10:04:23;;;;;;;60.87;32.57;;;0.30;99.90;;;;;;4827879;29;20562;-87
2023/01/25 10:06:57;;;;;;;66.07;35.03;;;0.30;99.90;;;;;;4841012;29;20044;-88
2023/01/25 10:09:42;;;;;;;65.10;33.10;;;0.30;99.90;;;;;;4827695;29;20077;-88
2023/01/25 10:12:21;;;;;;;59.13;31.63;;;0.30;99.90;;;;;;4825710;29;20090;-87
2023/01/25 10:14:47;;;;;;;60.97;31.83;;;0.20;99.90;;;;;;4840352;29;20073;-87
2023/01/25 10:17:33;;;;;;;59.80;32.03;;;0.20;99.90;;;;;;4816941;29;20041;-88
2023/01/25 10:20:19;;;;;;;61.03;32.07;;;0.30;99.90;;;;;;4826834;29;20045;-86
2023/01/25 10:22:51;;;;;;;60.70;32.30;;;0.20;99.90;;;;;;4827941;29;20053;-88
2023/01/25 10:25:36;;;;;;;56.57;31.23;;;0.20;99.90;;;;;;4828666;29;20417;-87
2023/01/25 10:28:29;;;;;;;60.00;31.50;;;0.20;99.90;;;;;;4843060;29;20044;-88
2023/01/25 10:31:18;;;;;;;64.20;32.97;;;0.20;99.90;;;;;;4846628;29;20044;-87
2023/01/25 10:33:46;;;;;;;58.97;31.33;;;0.20;99.90;;;;;;4862470;29;20044;-86
2023/01/25 10:36:15;;;;;;;57.47;31.30;;;0.30;99.90;;;;;;4838351;29;20065;-87
2023/01/25 10:38:44;;;;;;;55.90;29.73;;;0.30;99.90;;;;;;4846008;29;20041;-88
2023/01/25 10:41:27;;;;;;;61.40;31.83;;;0.30;99.90;;;;;;4847096;29;20072;-88
2023/01/25 10:46:40;;;;;;;55.83;29.23;;;0.30;99.90;;;;;;4831068;29;20056;-87
2023/01/25 10:49:44;;;;;;;55.43;28.57;;;0.20;99.90;;;;;;4829192;29;20041;-88
2023/01/25 10:52:14;;;;;;;63.43;32.33;;;0.20;99.90;;;;;;4848660;29;20053;-87
2023/01/25 10:54:40;;;;;;;59.47;31.73;;;0.20;99.90;;;;;;4843480;29;20120;-88
2023/01/25 10:57:08;;;;;;;63.47;32.87;;;0.20;99.90;;;;;;4844288;29;20124;-89
2023/01/25 10:59:35;;;;;;;61.43;32.80;;;0.20;99.90;;;;;;4833969;29;20040;-87
2023/01/25 11:02:34;;;;;;;58.90;31.40;;;0.20;99.90;;;;;;4838324;29;20040;-88
2023/01/25 11:05:35;;;;;;;59.87;30.73;;;0.30;99.90;;;;;;4846822;29;20069;-88
2023/01/25 11:08:31;;;;;;;56.70;29.70;;;0.30;99.90;;;;;;4841556;29;20033;-88
2023/01/25 11:10:58;;;;;;;61.27;32.27;;;0.30;99.90;;;;;;4834246;29;20490;-88
2023/01/25 11:13:31;;;;;;;61.43;31.67;;;0.40;99.90;;;;;;4828995;29;20405;-87
2023/01/25 11:16:05;;;;;;;61.17;32.10;;;0.40;99.90;;;;;;4811124;29;20041;-87
2023/01/25 11:18:34;;;;;;;60.77;30.60;;;0.40;99.90;;;;;;4829494;29;20067;-90
2023/01/25 11:21:20;;;;;;;61.83;32.20;;;0.40;99.90;;;;;;4830342;29;20482;-88
2023/01/25 11:24:07;;;;;;;64.50;32.20;;;0.50;99.90;;;;;;4850702;29;20045;-89
2023/01/25 11:26:36;;;;;;;55.50;28.93;;;0.50;99.90;;;;;;4850256;29;20171;-88
2023/01/25 11:29:10;;;;;;;58.00;30.27;;;0.40;99.90;;;;;;4850621;29;20041;-86
2023/01/25 11:31:35;;;;;;;58.00;29.90;;;0.40;99.90;;;;;;4836839;29;20128;-88
2023/01/25 11:34:01;;;;;;;55.17;28.63;;;0.40;99.90;;;;;;4839595;29;20152;-87
2023/01/25 11:36:36;;;;;;;56.47;29.93;;;0.40;99.90;;;;;;4835335;29;20430;-88
2023/01/25 11:39:12;;;;;;;57.53;30.53;;;0.30;99.90;;;;;;4850601;29;20133;-88
2023/01/25 11:42:17;;;;;;;60.50;30.87;;;0.30;99.90;;;;;;4850593;29;20037;-88
2023/01/25 11:44:48;;;;;;;56.30;29.03;;;0.30;99.90;;;;;;4850503;29;20385;-87
2023/01/25 11:47:23;;;;;;;62.88;31.95;;;0.30;99.90;;;;;;4850675;29;20044;-88
2023/01/25 11:49:49;;;;;;;64.77;32.50;;;0.30;99.90;;;;;;4850315;29;20133;-87
2023/01/25 11:52:45;;;;;;;59.40;29.10;;;0.30;99.90;;;;;;4843383;29;20120;-88
2023/01/25 11:55:36;;;;;;;62.83;30.43;;;0.30;99.90;;;;;;4848794;29;20052;-88
2023/01/25 11:58:20;;;;;;;55.70;28.43;;;0.30;99.90;;;;;;4831223;29;20449;-86
2023/01/25 12:01:16;;;;;;;58.13;31.17;;;0.30;99.90;;;;;;4831552;29;20095;-87
2023/01/25 12:03:59;;;;;;;61.63;30.13;;;0.30;99.90;;;;;;4833863;29;20466;-87
2023/01/25 12:06:24;;;;;;;61.90;31.30;;;0.30;99.90;;;;;;4843656;29;20045;-87
2023/01/25 12:09:18;;;;;;;61.47;31.93;;;0.40;99.90;;;;;;4829530;29;20050;-87
2023/01/25 12:12:08;;;;;;;58.53;31.10;;;0.30;99.90;;;;;;4825760;29;20072;-88
2023/01/25 12:14:43;;;;;;;58.07;30.07;;;0.30;99.90;;;;;;4865766;29;20457;-87
2023/01/25 12:17:22;;;;;;;60.57;30.30;;;0.30;99.90;;;;;;4831292;29;20049;-87
2023/01/25 12:20:07;;;;;;;62.20;30.67;;;0.30;99.90;;;;;;4831668;29;20046;-91
2023/01/25 12:23:00;;;;;;;62.57;29.37;;;0.40;99.90;;;;;;4831463;29;20074;-88
2023/01/25 12:25:44;;;;;;;59.60;30.13;;;0.40;99.90;;;;;;4835905;29;20049;-89
2023/01/25 12:28:18;;;;;;;57.63;30.33;;;0.40;99.90;;;;;;4842714;29;20037;-89
2023/01/25 12:31:01;;;;;;;63.57;31.67;;;0.40;99.90;;;;;;4835271;29;20512;-90
2023/01/25 12:33:43;;;;;;;63.80;32.57;;;0.50;99.90;;;;;;4833029;29;20558;-89
2023/01/25 12:36:12;;;;;;;62.67;30.20;;;0.50;99.90;;;;;;4832136;29;20057;-89
2023/01/25 12:39:03;;;;;;;60.30;29.37;;;0.50;99.90;;;;;;4845915;29;20500;-90
2023/01/25 12:41:39;;;;;;;63.20;30.20;;;0.40;99.90;;;;;;4832486;29;20454;-88
2023/01/25 12:44:43;;;;;;;54.50;26.50;;;0.40;99.90;;;;;;4827838;29;20498;-90
2023/01/25 12:47:27;;;;;;;53.40;27.20;;;0.30;99.90;;;;;;4778489;29;20042;-89
2023/01/25 12:49:53;;;;;;;57.03;28.07;;;0.20;99.90;;;;;;4828679;29;20050;-89
2023/01/25 12:52:34;;;;;;;58.33;27.50;;;0.10;99.90;;;;;;4849723;29;20084;-89
2023/01/25 12:55:02;;;;;;;59.83;28.27;;;0.10;99.90;;;;;;4849972;29;20366;-89
2023/01/25 12:57:45;;;;;;;63.53;30.13;;;0.10;99.90;;;;;;4849594;29;20398;-81